Time;durP1;ratioP1;P1;durP2;ratioP2;P2;SDS_P1;SDS_P2;PMS_P1;PMS_P2;Temp;Humidity;BMP_temperature;BMP_pressure;BME280_temperature;BME280_humidity;BME280_pressure;Samples;Min_cycle;Max_cycle;Signal;HPM_P1;HPM_P2
2023/12/09 00:01:42;;;;;;;434.40;327.67;;;16.30;84.30;;;;;;5109606;28;20114;-65
2023/12/09 00:04:09;;;;;;;406.23;306.42;;;;;;;;;;5077365;28;20056;-68
2023/12/09 00:06:35;;;;;;;374.98;281.80;;;;;;;;;;5112974;28;20055;-65
2023/12/09 00:09:02;;;;;;;342.02;265.00;;;;;;;;;;5108765;28;20059;-68
2023/12/09 00:11:28;;;;;;;337.23;254.75;;;;;;;;;;5106353;28;20047;-68
2023/12/09 00:13:54;;;;;;;325.25;242.05;;;;;;;;;;5091174;28;20060;-68
2023/12/09 00:16:20;;;;;;;298.05;226.05;;;16.20;84.50;;;;;;5093830;28;20055;-67
2023/12/09 00:18:46;;;;;;;274.00;208.05;;;16.00;84.50;;;;;;5103084;28;20486;-67
2023/12/09 00:21:12;;;;;;;264.45;198.77;;;;;;;;;;5074695;28;20047;-65
2023/12/09 00:23:38;;;;;;;243.00;182.43;;;;;;;;;;5084555;28;20100;-66
2023/12/09 00:26:04;;;;;;;231.40;169.27;;;15.90;84.80;;;;;;5098232;28;20040;-65
2023/12/09 00:28:30;;;;;;;222.43;160.65;;;;;;;;;;5101456;27;20040;-65
2023/12/09 00:30:56;;;;;;;194.07;142.23;;;;;;;;;;5074952;28;20055;-65
2023/12/09 00:33:22;;;;;;;186.43;134.38;;;;;;;;;;5083840;28;20047;-66
2023/12/09 00:35:49;;;;;;;174.27;126.25;;;;;;;;;;5111357;28;20126;-65
2023/12/09 00:38:15;;;;;;;161.70;117.68;;;;;;;;;;5090319;28;20459;-65
2023/12/09 00:40:41;;;;;;;155.20;109.20;;;;;;;;;;5074263;28;20444;-65
2023/12/09 00:43:07;;;;;;;139.00;104.32;;;;;;;;;;5074560;28;20089;-65
2023/12/09 00:45:33;;;;;;;129.55;96.38;;;;;;;;;;5114810;28;20047;-65
2023/12/09 00:47:59;;;;;;;129.93;94.00;;;;;;;;;;5077917;28;20046;-65
2023/12/09 00:50:26;;;;;;;116.72;85.05;;;;;;;;;;5075179;28;20387;-65
2023/12/09 00:52:52;;;;;;;110.70;82.05;;;;;;;;;;5059763;28;20104;-66
2023/12/09 00:55:18;;;;;;;104.97;78.28;;;;;;;;;;5074417;28;20056;-68
2023/12/09 00:57:44;;;;;;;98.25;72.07;;;;;;;;;;5106433;28;20039;-65
2023/12/09 01:00:10;;;;;;;96.93;70.22;;;16.30;84.60;;;;;;5098650;28;20104;-65
2023/12/09 01:02:39;;;;;;;93.07;67.90;;;;;;;;;;5104859;28;20050;-65
2023/12/09 01:05:06;;;;;;;89.57;62.50;;;;;;;;;;5112027;28;20090;-65
2023/12/09 01:07:32;;;;;;;77.38;58.30;;;;;;;;;;5111710;28;20480;-65
2023/12/09 01:09:58;;;;;;;75.13;54.58;;;;;;;;;;5091458;28;21985;-65
2023/12/09 01:12:24;;;;;;;74.15;53.05;;;;;;;;;;5106077;28;20451;-68
2023/12/09 01:14:50;;;;;;;69.13;49.38;;;;;;;;;;5091937;28;20075;-65
2023/12/09 01:17:16;;;;;;;69.57;49.15;;;;;;;;;;5074235;28;20115;-65
2023/12/09 01:19:42;;;;;;;65.47;45.90;;;;;;;;;;5098282;28;20043;-66
2023/12/09 01:22:09;;;;;;;60.13;43.15;;;;;;;;;;5111427;28;20050;-65
2023/12/09 01:24:35;;;;;;;60.72;41.72;;;;;;;;;;5073556;28;20055;-66
2023/12/09 01:27:01;;;;;;;55.47;40.20;;;;;;;;;;5082160;28;20047;-65
2023/12/09 01:29:27;;;;;;;53.90;38.58;;;;;;;;;;5098719;28;20790;-65
2023/12/09 01:31:54;;;;;;;51.95;37.22;;;;;;;;;;5098912;28;20079;-65
2023/12/09 01:34:20;;;;;;;50.55;36.42;;;;;;;;;;5092284;28;20082;-65
2023/12/09 01:36:46;;;;;;;45.78;33.53;;;;;;;;;;5070642;28;20040;-65
2023/12/09 01:39:12;;;;;;;42.20;32.05;;;;;;;;;;5109946;28;20042;-65
2023/12/09 01:41:39;;;;;;;41.60;31.30;;;;;;;;;;5115887;28;20489;-65
2023/12/09 01:44:05;;;;;;;41.13;30.05;;;;;;;;;;5095480;28;20044;-65
2023/12/09 01:46:31;;;;;;;42.83;29.27;;;;;;;;;;5061748;28;20035;-65
2023/12/09 01:48:57;;;;;;;46.25;28.20;;;;;;;;;;5063372;28;20082;-65
2023/12/09 01:51:23;;;;;;;39.67;27.52;;;;;;;;;;5088667;28;20040;-65
2023/12/09 01:53:49;;;;;;;39.60;26.75;;;;;;;;;;5093133;28;20059;-65
2023/12/09 01:56:15;;;;;;;40.38;25.33;;;;;;;;;;5092745;28;20063;-67
2023/12/09 01:58:41;;;;;;;35.72;25.70;;;;;;;;;;5051004;28;20040;-68
2023/12/09 02:01:08;;;;;;;34.70;23.98;;;;;;;;;;5099701;28;20040;-65
2023/12/09 02:03:34;;;;;;;33.53;23.13;;;;;;;;;;5099988;28;20046;-66
2023/12/09 02:06:00;;;;;;;32.15;22.13;;;;;;;;;;5087007;28;20599;-66
2023/12/09 02:08:26;;;;;;;32.08;21.35;;;15.50;86.00;;;;;;5067921;28;20047;-66
2023/12/09 02:11:02;;;;;;;33.13;21.67;;;15.50;83.60;;;;;;5077069;28;20438;-66
2023/12/09 02:13:37;;;;;;;30.70;19.80;;;15.50;83.70;;;;;;5078399;28;20070;-66
2023/12/09 02:16:11;;;;;;;29.05;19.35;;;15.40;83.70;;;;;;5077823;28;20043;-66
2023/12/09 02:18:37;;;;;;;31.48;18.65;;;;;;;;;;5093819;28;20035;-68
2023/12/09 02:21:03;;;;;;;29.65;18.10;;;15.50;83.00;;;;;;5076705;28;20051;-66
2023/12/09 02:23:29;;;;;;;28.23;17.38;;;;;;;;;;5059627;28;20039;-66
2023/12/09 02:25:56;;;;;;;25.40;16.38;;;;;;;;;;5063234;28;20052;-66
2023/12/09 02:28:28;;;;;;;28.23;16.50;;;;;;;;;;5094048;28;20042;-66
2023/12/09 02:30:55;;;;;;;23.77;16.05;;;;;;;;;;5085969;28;20051;-66
2023/12/09 02:33:21;;;;;;;28.30;16.40;;;;;;;;;;5093136;28;20056;-66
2023/12/09 02:35:48;;;;;;;27.10;15.95;;;15.10;83.50;;;;;;5073677;28;20039;-66
2023/12/09 02:38:14;;;;;;;24.98;15.57;;;;;;;;;;5089895;28;20481;-66
2023/12/09 02:40:41;;;;;;;25.90;15.35;;;;;;;;;;5093081;28;20046;-66
2023/12/09 02:43:07;;;;;;;25.45;14.73;;;;;;;;;;5089162;28;20036;-66
2023/12/09 02:45:33;;;;;;;24.13;14.60;;;;;;;;;;5067438;28;20074;-66
2023/12/09 02:47:59;;;;;;;20.88;13.85;;;;;;;;;;5096544;28;20050;-66
2023/12/09 02:50:25;;;;;;;22.70;14.15;;;;;;;;;;5073588;28;20420;-66
2023/12/09 02:52:51;;;;;;;24.15;13.63;;;;;;;;;;5063155;28;20054;-68
2023/12/09 02:55:18;;;;;;;23.98;14.25;;;;;;;;;;5099036;28;20039;-69
2023/12/09 02:57:44;;;;;;;25.00;13.98;;;;;;;;;;5099831;28;20089;-66
2023/12/09 03:00:10;;;;;;;22.02;13.10;;;14.90;87.30;;;;;;5109817;28;20044;-66
2023/12/09 03:02:36;;;;;;;23.27;13.10;;;;;;;;;;5110331;28;20539;-65
2023/12/09 03:05:02;;;;;;;21.90;13.18;;;;;;;;;;5078733;28;20056;-66
2023/12/09 03:07:28;;;;;;;22.85;12.70;;;15.00;83.90;;;;;;5095015;28;20043;-68
2023/12/09 03:09:54;;;;;;;23.58;13.25;;;;;;;;;;5046061;28;20028;-66
2023/12/09 03:12:20;;;;;;;22.30;12.73;;;;;;;;;;5044612;28;20044;-66
2023/12/09 03:14:47;;;;;;;21.77;12.32;;;;;;;;;;5075051;28;20092;-66
2023/12/09 03:17:13;;;;;;;22.05;12.25;;;;;;;;;;5063910;28;20087;-66
2023/12/09 03:19:39;;;;;;;19.98;11.70;;;;;;;;;;5090738;28;20496;-69
2023/12/09 03:22:05;;;;;;;21.13;11.48;;;;;;;;;;5060164;28;20044;-66
2023/12/09 03:24:31;;;;;;;26.17;12.23;;;;;;;;;;5092709;27;20047;-66
2023/12/09 03:26:58;;;;;;;21.92;11.73;;;;;;;;;;5079339;28;20054;-66
2023/12/09 03:29:24;;;;;;;22.98;11.68;;;;;;;;;;5074672;28;20043;-67
2023/12/09 03:31:50;;;;;;;20.83;11.18;;;;;;;;;;5093486;28;20566;-67
2023/12/09 03:34:16;;;;;;;19.52;10.98;;;;;;;;;;5065121;28;20155;-66
2023/12/09 03:36:42;;;;;;;21.92;11.68;;;;;;;;;;5059146;28;20396;-66
2023/12/09 03:39:11;;;;;;;21.10;11.80;;;;;;;;;;5069299;28;20130;-66
2023/12/09 03:41:37;;;;;;;16.67;10.20;;;;;;;;;;5070828;28;20040;-66
2023/12/09 03:44:04;;;;;;;20.13;11.05;;;;;;;;;;5095489;28;20130;-66
2023/12/09 03:46:30;;;;;;;20.63;11.18;;;;;;;;;;5082983;28;20552;-66
2023/12/09 03:48:56;;;;;;;19.83;10.55;;;;;;;;;;5086035;28;20040;-65
2023/12/09 03:51:22;;;;;;;21.38;10.48;;;;;;;;;;5061981;28;20043;-66
2023/12/09 03:53:48;;;;;;;21.15;10.77;;;;;;;;;;5067016;28;20516;-66
2023/12/09 03:56:16;;;;;;;17.65;9.98;;;14.60;86.80;;;;;;5057784;28;20044;-66
2023/12/09 03:58:42;;;;;;;22.30;10.82;;;;;;;;;;5059639;28;20039;-66
2023/12/09 04:01:09;;;;;;;19.33;10.35;;;;;;;;;;5074871;28;20052;-66
2023/12/09 04:03:35;;;;;;;20.92;10.32;;;;;;;;;;5057459;28;20056;-66
2023/12/09 04:06:03;;;;;;;19.17;9.23;;;;;;;;;;5058231;28;20052;-65
2023/12/09 04:08:29;;;;;;;18.88;9.65;;;;;;;;;;5057620;28;20067;-66
2023/12/09 04:10:55;;;;;;;17.83;9.40;;;;;;;;;;5059276;28;20074;-65
2023/12/09 04:13:21;;;;;;;20.73;10.63;;;;;;;;;;5109845;28;20047;-66
2023/12/09 04:15:48;;;;;;;20.27;10.00;;;;;;;;;;5076430;28;20048;-66
2023/12/09 04:18:14;;;;;;;19.40;9.50;;;;;;;;;;5074617;28;20048;-66
2023/12/09 04:20:41;;;;;;;19.08;9.48;;;;;;;;;;5092643;28;20052;-66
2023/12/09 04:23:07;;;;;;;19.02;9.52;;;;;;;;;;5075459;28;20040;-66
2023/12/09 04:25:33;;;;;;;18.63;9.93;;;;;;;;;;5098410;28;20474;-66
2023/12/09 04:27:59;;;;;;;19.30;9.80;;;;;;;;;;5092484;28;20059;-66
2023/12/09 04:30:25;;;;;;;16.58;8.63;;;;;;;;;;5100402;28;20489;-66
2023/12/09 04:32:51;;;;;;;20.02;9.75;;;;;;;;;;5104011;28;20079;-66
2023/12/09 04:35:18;;;;;;;20.50;10.27;;;;;;;;;;5087248;28;20058;-65
2023/12/09 04:37:44;;;;;;;16.75;8.98;;;;;;;;;;5075058;28;20048;-66
2023/12/09 04:40:13;;;;;;;18.40;8.85;;;;;;;;;;5092613;28;20120;-65
2023/12/09 04:42:39;;;;;;;21.67;9.05;;;;;;;;;;5089567;28;20082;-66
2023/12/09 04:45:06;;;;;;;17.90;8.80;;;;;;;;;;5093362;28;20078;-66
2023/12/09 04:47:32;;;;;;;17.95;9.02;;;14.20;87.00;;;;;;5104605;28;20035;-66
2023/12/09 04:49:58;;;;;;;19.45;9.00;;;14.20;87.40;;;;;;5092688;28;20052;-66
2023/12/09 04:52:24;;;;;;;17.95;9.15;;;;;;;;;;5093350;28;20097;-66
2023/12/09 04:54:50;;;;;;;21.77;9.23;;;;;;;;;;5102355;28;20041;-66
2023/12/09 04:57:17;;;;;;;17.92;8.32;;;;;;;;;;5092213;28;20052;-66
2023/12/09 04:59:43;;;;;;;16.70;8.45;;;;;;;;;;5095639;28;20103;-66
2023/12/09 05:02:10;;;;;;;17.92;9.02;;;;;;;;;;5094928;28;20044;-68
2023/12/09 05:04:36;;;;;;;17.20;8.65;;;;;;;;;;5092650;28;20051;-68
2023/12/09 05:07:03;;;;;;;19.15;8.20;;;14.10;88.40;;;;;;5094623;28;20051;-68
2023/12/09 05:09:29;;;;;;;16.85;8.00;;;;;;;;;;5061627;28;20496;-67
2023/12/09 05:11:55;;;;;;;19.17;8.35;;;;;;;;;;5110703;28;20065;-66
2023/12/09 05:14:21;;;;;;;17.25;8.23;;;;;;;;;;5097688;28;20040;-66
2023/12/09 05:16:47;;;;;;;16.25;8.38;;;;;;;;;;5087255;28;20123;-66
2023/12/09 05:19:13;;;;;;;16.52;7.55;;;;;;;;;;5091269;28;20048;-66
2023/12/09 05:21:39;;;;;;;19.10;8.48;;;;;;;;;;5098095;28;20051;-66
2023/12/09 05:24:05;;;;;;;19.48;8.63;;;;;;;;;;5084150;28;20040;-67
2023/12/09 05:26:32;;;;;;;16.55;7.97;;;;;;;;;;5116405;28;20445;-68
2023/12/09 05:28:57;;;;;;;15.57;8.05;;;14.00;89.30;;;;;;5078131;28;20497;-66
2023/12/09 05:31:24;;;;;;;19.65;8.70;;;;;;;;;;5060626;28;20123;-66
2023/12/09 05:33:50;;;;;;;19.05;7.85;;;14.00;90.40;;;;;;5097601;28;20048;-66
2023/12/09 05:36:15;;;;;;;14.50;7.00;;;14.10;90.40;;;;;;5086980;28;20043;-66
2023/12/09 05:38:41;;;;;;;14.68;7.53;;;13.90;90.20;;;;;;5115156;28;20071;-66
2023/12/09 05:41:08;;;;;;;18.45;8.00;;;;;;;;;;5076107;28;20515;-66
2023/12/09 05:43:38;;;;;;;16.25;7.70;;;;;;;;;;5074869;28;20398;-66
2023/12/09 05:46:04;;;;;;;18.05;7.82;;;;;;;;;;5094939;28;20140;-66
2023/12/09 05:48:31;;;;;;;17.27;8.07;;;14.00;88.60;;;;;;5069017;28;20048;-66
2023/12/09 05:50:58;;;;;;;17.25;7.40;;;;;;;;;;5072061;28;20062;-68
2023/12/09 05:53:24;;;;;;;19.17;8.20;;;;;;;;;;5066336;28;20054;-66
2023/12/09 05:55:50;;;;;;;17.70;8.05;;;;;;;;;;5081026;28;20141;-66
2023/12/09 05:58:16;;;;;;;19.33;8.60;;;;;;;;;;5095072;28;20087;-66
2023/12/09 06:00:43;;;;;;;12.98;7.47;;;13.90;88.50;;;;;;5094621;28;20082;-66
2023/12/09 06:03:09;;;;;;;17.27;7.97;;;;;;;;;;5079944;28;20063;-66
2023/12/09 06:05:36;;;;;;;18.17;7.82;;;;;;;;;;5096345;28;20044;-66
2023/12/09 06:08:02;;;;;;;16.98;7.53;;;;;;;;;;5108090;28;20055;-66
2023/12/09 06:10:28;;;;;;;15.40;7.03;;;;;;;;;;5094001;28;20500;-66
2023/12/09 06:12:54;;;;;;;18.15;7.32;;;;;;;;;;5085163;28;20054;-66
2023/12/09 06:15:20;;;;;;;18.75;7.03;;;;;;;;;;5082284;28;20040;-66
2023/12/09 06:17:46;;;;;;;18.02;7.25;;;;;;;;;;5106526;28;20039;-66
2023/12/09 06:20:13;;;;;;;16.50;7.15;;;;;;;;;;5076712;28;20048;-66
2023/12/09 06:22:39;;;;;;;17.00;7.43;;;;;;;;;;5095323;28;20047;-66
2023/12/09 06:25:05;;;;;;;16.00;7.03;;;;;;;;;;5076922;28;20069;-65
2023/12/09 06:27:31;;;;;;;16.92;8.00;;;;;;;;;;5098365;28;20129;-66
2023/12/09 06:29:57;;;;;;;15.43;6.70;;;;;;;;;;5094734;28;20039;-66
2023/12/09 06:32:23;;;;;;;15.07;7.50;;;;;;;;;;5094070;28;20040;-66
2023/12/09 06:34:49;;;;;;;17.90;7.72;;;;;;;;;;5080060;28;20127;-66
2023/12/09 06:37:15;;;;;;;15.77;7.35;;;13.80;90.30;;;;;;5090224;28;20047;-66
2023/12/09 06:39:41;;;;;;;18.13;7.75;;;;;;;;;;5113493;28;20042;-66
2023/12/09 06:42:07;;;;;;;14.60;7.65;;;;;;;;;;5102852;28;20389;-65
2023/12/09 06:44:34;;;;;;;18.02;7.50;;;;;;;;;;5076590;28;20505;-66
2023/12/09 06:47:00;;;;;;;17.75;7.10;;;;;;;;;;5099829;28;20044;-66
2023/12/09 06:49:26;;;;;;;15.95;6.95;;;;;;;;;;5106706;28;20044;-66
2023/12/09 06:51:52;;;;;;;15.13;7.68;;;;;;;;;;5087446;28;20047;-68
2023/12/09 06:54:18;;;;;;;14.23;6.60;;;;;;;;;;5095889;28;20044;-65
2023/12/09 06:56:44;;;;;;;17.23;7.95;;;;;;;;;;5107456;27;20044;-65
2023/12/09 06:59:10;;;;;;;18.30;7.55;;;;;;;;;;5101838;28;20048;-66
2023/12/09 07:01:37;;;;;;;17.30;7.47;;;;;;;;;;5104496;27;20044;-66
2023/12/09 07:04:03;;;;;;;16.42;7.55;;;13.70;91.10;;;;;;5111961;28;20060;-68
2023/12/09 07:06:29;;;;;;;19.25;7.40;;;13.70;88.80;;;;;;5086142;28;20120;-66
2023/12/09 07:08:58;;;;;;;15.20;6.88;;;;;;;;;;5101488;28;20063;-69
2023/12/09 07:11:24;;;;;;;18.00;7.47;;;;;;;;;;5099824;28;20032;-69
2023/12/09 07:13:50;;;;;;;16.25;6.82;;;13.70;91.20;;;;;;5075406;28;20075;-68
2023/12/09 07:16:16;;;;;;;14.48;7.05;;;;;;;;;;5111200;28;20075;-69
2023/12/09 07:18:46;;;;;;;16.98;7.10;;;;;;;;;;5124268;27;20049;-64
2023/12/09 07:21:15;;;;;;;23.83;8.00;;;13.50;89.10;;;;;;5075160;28;20062;-64
2023/12/09 07:23:41;;;;;;;32.70;10.55;;;;;;;;;;5093574;28;20595;-65
2023/12/09 07:26:07;;;;;;;68.55;41.67;;;;;;;;;;5109130;27;20048;-67
2023/12/09 07:28:34;;;;;;;86.97;48.45;;;;;;;;;;5091606;28;20051;-67
2023/12/09 07:31:01;;;;;;;112.25;71.38;;;;;;;;;;5092805;28;20050;-66
2023/12/09 07:33:27;;;;;;;111.75;98.47;;;;;;;;;;5093387;28;20401;-66
2023/12/09 07:35:53;;;;;;;98.15;87.80;;;;;;;;;;5102590;27;20040;-66
2023/12/09 07:38:19;;;;;;;87.97;79.03;;;;;;;;;;5086534;28;20409;-67
2023/12/09 07:40:46;;;;;;;76.68;69.75;;;;;;;;;;5095642;28;20036;-66
2023/12/09 07:43:12;;;;;;;71.93;64.40;;;;;;;;;;5092272;28;20044;-66
2023/12/09 07:45:38;;;;;;;63.60;56.58;;;;;;;;;;5101013;28;20530;-65
2023/12/09 07:48:04;;;;;;;57.33;51.95;;;14.60;90.90;;;;;;5090746;28;20547;-66
2023/12/09 07:50:35;;;;;;;53.10;47.70;;;;;;;;;;5095141;28;20156;-66
2023/12/09 07:53:06;;;;;;;48.85;44.13;;;;;;;;;;5109442;28;20048;-65
2023/12/09 07:55:33;;;;;;;43.80;39.13;;;;;;;;;;5104830;28;20047;-67
2023/12/09 07:57:59;;;;;;;39.20;35.10;;;;;;;;;;5110787;28;20051;-66
2023/12/09 08:00:27;;;;;;;37.15;32.80;;;;;;;;;;5101234;28;20040;-66
2023/12/09 08:02:56;;;;;;;34.15;30.80;;;;;;;;;;5101039;28;20092;-66
2023/12/09 08:05:23;;;;;;;32.38;28.80;;;;;;;;;;5066800;28;20078;-66
2023/12/09 08:07:49;;;;;;;28.83;25.90;;;;;;;;;;5090833;28;20055;-66
2023/12/09 08:10:15;;;;;;;29.73;24.75;;;;;;;;;;5107741;28;20126;-66
2023/12/09 08:12:42;;;;;;;27.83;22.48;;;;;;;;;;5111297;28;20055;-66
2023/12/09 08:15:08;;;;;;;26.70;21.33;;;;;;;;;;5094911;28;20047;-66
2023/12/09 08:17:35;;;;;;;24.27;19.23;;;;;;;;;;5097149;28;20425;-66
2023/12/09 08:20:01;;;;;;;24.65;19.23;;;;;;;;;;5093022;28;20040;-67
2023/12/09 08:22:27;;;;;;;35.00;31.40;;;;;;;;;;5100693;28;20043;-66
2023/12/09 08:24:53;;;;;;;31.80;25.40;;;;;;;;;;5113194;28;20031;-66
2023/12/09 08:27:19;;;;;;;24.50;21.30;;;;;;;;;;5086086;28;20040;-66
2023/12/09 08:29:45;;;;;;;23.55;20.10;;;;;;;;;;5074612;28;20043;-66
2023/12/09 08:32:12;;;;;;;24.10;18.75;;;;;;;;;;5041321;28;20050;-66
2023/12/09 08:34:38;;;;;;;18.38;16.55;;;;;;;;;;5096399;28;20035;-66
2023/12/09 08:37:04;;;;;;;22.30;16.02;;;;;;;;;;5082436;28;20044;-66
2023/12/09 08:39:31;;;;;;;20.67;12.60;;;;;;;;;;5086377;28;20519;-67
2023/12/09 08:41:57;;;;;;;16.85;13.05;;;;;;;;;;5094740;28;20036;-66
2023/12/09 08:44:23;;;;;;;20.95;14.05;;;;;;;;;;5112699;28;20047;-67
2023/12/09 08:46:51;;;;;;;23.33;12.93;;;;;;;;;;5056624;28;20043;-67
2023/12/09 08:49:18;;;;;;;21.88;12.10;;;;;;;;;;5092069;28;20135;-66
2023/12/09 08:51:47;;;;;;;20.23;11.63;;;;;;;;;;5094406;28;20039;-66
2023/12/09 08:54:13;;;;;;;19.73;10.35;;;;;;;;;;5094444;28;20051;-67
2023/12/09 08:56:39;;;;;;;20.00;10.20;;;;;;;;;;5103100;28;20043;-66
2023/12/09 08:59:07;;;;;;;16.52;9.23;;;;;;;;;;5057323;28;20059;-69
2023/12/09 09:01:34;;;;;;;17.10;9.05;;;;;;;;;;5064530;28;20047;-68
2023/12/09 09:04:01;;;;;;;19.08;8.57;;;;;;;;;;5102691;28;20048;-68
2023/12/09 09:06:27;;;;;;;24.70;9.25;;;;;;;;;;5097525;28;20401;-68
2023/12/09 09:08:53;;;;;;;15.95;7.97;;;;;;;;;;5066260;28;20047;-67
2023/12/09 09:11:20;;;;;;;16.98;9.20;;;;;;;;;;5112526;28;20055;-66
2023/12/09 09:13:46;;;;;;;18.27;9.15;;;;;;;;;;5083625;28;20405;-66
2023/12/09 09:16:14;;;;;;;16.55;8.27;;;15.40;86.00;;;;;;5092409;28;20109;-67
2023/12/09 09:18:40;;;;;;;19.88;8.07;;;;;;;;;;5074252;28;20140;-67
2023/12/09 09:21:06;;;;;;;19.27;7.32;;;15.40;88.70;;;;;;5092707;28;20040;-67
2023/12/09 09:23:32;;;;;;;19.55;7.78;;;;;;;;;;5074151;28;20131;-67
2023/12/09 09:25:58;;;;;;;12.25;6.68;;;;;;;;;;5057521;28;20101;-67
2023/12/09 09:28:24;;;;;;;15.23;6.82;;;;;;;;;;5092212;28;20040;-66
2023/12/09 09:30:50;;;;;;;13.15;6.05;;;;;;;;;;5102295;28;20082;-66
2023/12/09 09:33:17;;;;;;;13.88;6.32;;;;;;;;;;5104107;28;20075;-67
2023/12/09 09:35:46;;;;;;;14.40;6.43;;;;;;;;;;5074114;28;20036;-66
2023/12/09 09:38:12;;;;;;;13.48;6.03;;;;;;;;;;5074411;28;20048;-66
2023/12/09 09:40:38;;;;;;;13.68;5.43;;;;;;;;;;5074286;28;20047;-66
2023/12/09 09:43:08;;;;;;;13.07;5.50;;;;;;;;;;5074015;28;20043;-66
2023/12/09 09:45:34;;;;;;;12.65;4.97;;;;;;;;;;5073829;28;20048;-66
2023/12/09 09:48:03;;;;;;;11.77;4.78;;;15.50;85.80;;;;;;5085679;28;20505;-66
2023/12/09 09:50:30;;;;;;;14.88;5.20;;;;;;;;;;5093872;28;20081;-66
2023/12/09 09:52:56;;;;;;;10.63;4.57;;;;;;;;;;5113473;28;20097;-67
2023/12/09 09:55:23;;;;;;;13.98;5.00;;;;;;;;;;5092008;28;20530;-67
2023/12/09 09:57:49;;;;;;;13.02;5.25;;;;;;;;;;5061167;28;20059;-66
2023/12/09 10:00:16;;;;;;;13.63;4.65;;;;;;;;;;5060663;28;20054;-67
2023/12/09 10:02:43;;;;;;;14.00;4.40;;;15.40;84.50;;;;;;5060417;28;20058;-66
2023/12/09 10:05:10;;;;;;;10.63;4.32;;;;;;;;;;5070225;28;20063;-66
2023/12/09 10:07:37;;;;;;;11.75;4.43;;;;;;;;;;5082315;28;20135;-66
2023/12/09 10:10:03;;;;;;;10.57;4.38;;;;;;;;;;5077277;28;20105;-66
2023/12/09 10:12:29;;;;;;;10.65;4.00;;;;;;;;;;5085959;28;20131;-66
2023/12/09 10:14:58;;;;;;;11.27;4.03;;;;;;;;;;5068049;28;20101;-66
2023/12/09 10:17:25;;;;;;;11.07;3.92;;;;;;;;;;5097762;28;20416;-67
2023/12/09 10:19:51;;;;;;;11.93;4.30;;;;;;;;;;5115457;28;20035;-66
2023/12/09 10:22:17;;;;;;;11.02;4.18;;;;;;;;;;5101578;28;20055;-66
2023/12/09 10:24:50;;;;;;;11.90;4.55;;;;;;;;;;5093661;27;20040;-68
2023/12/09 10:27:20;;;;;;;;;;;15.20;86.30;;;;;;5095131;28;20123;-67
2023/12/09 10:29:46;;;;;;;12.85;4.50;;;;;;;;;;5094882;28;20349;-66
2023/12/09 10:32:12;;;;;;;14.20;4.47;;;;;;;;;;5094831;28;20044;-66
2023/12/09 10:34:41;;;;;;;14.68;4.45;;;15.30;88.70;;;;;;5060508;28;20082;-67
2023/12/09 10:37:11;;;;;;;10.18;3.65;;;15.00;85.20;;;;;;5077003;28;20089;-66
2023/12/09 10:39:37;;;;;;;11.50;3.95;;;;;;;;;;5076713;28;20392;-67
2023/12/09 10:42:04;;;;;;;11.82;4.05;;;;;;;;;;5080036;28;20039;-66
2023/12/09 10:44:30;;;;;;;9.00;3.70;;;;;;;;;;5096542;28;20077;-67
2023/12/09 10:46:57;;;;;;;12.15;4.68;;;;;;;;;;5096747;28;20130;-67
2023/12/09 10:49:23;;;;;;;11.80;4.28;;;;;;;;;;5076494;27;20079;-66
2023/12/09 10:51:49;;;;;;;13.18;4.55;;;;;;;;;;5078627;27;20076;-68
2023/12/09 10:54:15;;;;;;;9.95;4.03;;;;;;;;;;5106908;28;20040;-69
2023/12/09 10:56:42;;;;;;;11.57;4.10;;;;;;;;;;5078985;28;20048;-68
2023/12/09 10:59:09;;;;;;;10.90;3.92;;;;;;;;;;5076566;28;20040;-67
2023/12/09 11:01:35;;;;;;;19.90;6.82;;;;;;;;;;5087455;27;20039;-67
2023/12/09 11:04:03;;;;;;;35.33;18.17;;;;;;;;;;5099476;27;20134;-67
2023/12/09 11:06:33;;;;;;;20.40;10.25;;;14.70;87.10;;;;;;5078553;28;20075;-67
2023/12/09 11:08:59;;;;;;;24.95;12.82;;;;;;;;;;5095165;28;20130;-67
2023/12/09 11:11:26;;;;;;;28.08;11.18;;;;;;;;;;5094748;28;20043;-67
2023/12/09 11:13:53;;;;;;;22.95;9.38;;;15.00;87.40;;;;;;5094967;28;20055;-67
2023/12/09 11:16:21;;;;;;;24.75;17.85;;;;;;;;;;5094492;28;20052;-67
2023/12/09 11:18:48;;;;;;;21.35;15.15;;;;;;;;;;5096208;28;20050;-68
2023/12/09 11:21:16;;;;;;;17.40;12.82;;;15.40;89.40;;;;;;5116115;27;20039;-67
2023/12/09 11:24:00;;;;;;;18.02;12.52;;;15.90;86.70;;;;;;5113848;27;20464;-67
2023/12/09 11:26:33;;;;;;;21.23;10.85;;;15.70;85.30;;;;;;5095490;27;20044;-67
2023/12/09 11:29:05;;;;;;;14.02;9.55;;;15.90;83.90;;;;;;5075287;28;20473;-68
2023/12/09 11:31:49;;;;;;;17.02;10.02;;;16.10;84.00;;;;;;5113859;28;20050;-68
2023/12/09 11:34:20;;;;;;;16.15;8.30;;;16.10;85.00;;;;;;5092974;28;20402;-67
2023/12/09 11:36:46;;;;;;;12.70;7.53;;;;;;;;;;5093662;28;20097;-66
2023/12/09 11:39:14;;;;;;;23.33;13.70;;;16.10;84.00;;;;;;5083984;28;20086;-68
2023/12/09 11:41:40;;;;;;;32.65;29.30;;;;;;;;;;5065702;28;20408;-67
2023/12/09 11:44:07;;;;;;;22.98;18.90;;;;;;;;;;5077934;28;20039;-67
2023/12/09 11:46:34;;;;;;;22.50;17.85;;;16.70;83.20;;;;;;5093052;28;20401;-67
2023/12/09 11:49:00;;;;;;;16.73;13.85;;;;;;;;;;5077605;28;20080;-68
2023/12/09 11:51:26;;;;;;;16.77;13.27;;;16.80;82.20;;;;;;5048987;28;20066;-68
2023/12/09 11:53:57;;;;;;;17.05;12.07;;;17.10;81.70;;;;;;5057743;28;20079;-68
2023/12/09 11:56:23;;;;;;;14.25;11.02;;;;;;;;;;5043096;28;20036;-66
2023/12/09 11:58:50;;;;;;;15.52;10.30;;;;;;;;;;5066506;27;20370;-67
2023/12/09 12:01:17;;;;;;;12.55;9.73;;;;;;;;;;5113962;27;20055;-68
2023/12/09 12:03:43;;;;;;;12.38;8.60;;;;;;;;;;5062010;28;20506;-68
2023/12/09 12:06:09;;;;;;;15.95;8.98;;;;;;;;;;5050400;28;20139;-66
2023/12/09 12:08:36;;;;;;;11.25;7.60;;;;;;;;;;5078407;28;20044;-67
2023/12/09 12:11:03;;;;;;;12.63;6.93;;;;;;;;;;5072148;28;20051;-66
2023/12/09 12:13:30;;;;;;;11.75;7.03;;;;;;;;;;5074516;28;20052;-66
2023/12/09 12:15:56;;;;;;;11.13;6.80;;;16.40;83.00;;;;;;5075983;28;20048;-66
2023/12/09 12:18:22;;;;;;;9.10;5.75;;;16.60;82.40;;;;;;5072612;28;20039;-68
2023/12/09 12:20:49;;;;;;;11.10;6.03;;;;;;;;;;5070660;28;20055;-68
2023/12/09 12:23:15;;;;;;;9.60;5.65;;;16.10;82.50;;;;;;5112906;28;20197;-67
2023/12/09 12:25:41;;;;;;;10.70;5.82;;;;;;;;;;5093087;28;20066;-67
2023/12/09 12:28:08;;;;;;;7.82;5.13;;;;;;;;;;5103322;28;20085;-68
2023/12/09 12:30:34;;;;;;;16.98;6.60;;;;;;;;;;5084489;28;20468;-69
2023/12/09 12:33:00;;;;;;;36.55;12.70;;;;;;;;;;5096031;28;20409;-67
2023/12/09 12:35:26;;;;;;;21.35;11.93;;;;;;;;;;5092715;28;20075;-67
2023/12/09 12:37:52;;;;;;;23.10;12.57;;;;;;;;;;5095491;28;20404;-67
2023/12/09 12:40:19;;;;;;;132.80;116.40;;;;;;;;;;5098894;28;20122;-66
2023/12/09 12:42:45;;;;;;;27.48;18.85;;;;;;;;;;5084011;28;20693;-67
2023/12/09 12:45:31;;;;;;;54.25;28.60;;;;;;;;;;5091777;28;20040;-66
2023/12/09 12:47:57;;;;;;;79.95;22.02;;;;;;;;;;5076715;28;20048;-67
2023/12/09 12:50:24;;;;;;;39.78;16.52;;;;;;;;;;5076614;28;20595;-67
2023/12/09 12:52:50;;;;;;;26.88;13.27;;;;;;;;;;5094042;28;20517;-67
2023/12/09 12:55:17;;;;;;;21.60;10.02;;;;;;;;;;5098098;28;20447;-67
2023/12/09 12:57:43;;;;;;;30.27;9.50;;;14.90;88.20;;;;;;5107912;28;20056;-67
2023/12/09 13:00:11;;;;;;;27.10;8.82;;;;;;;;;;5092635;28;20405;-68
2023/12/09 13:02:38;;;;;;;19.08;7.30;;;;;;;;;;5083974;28;20085;-67
2023/12/09 13:05:04;;;;;;;15.23;6.22;;;;;;;;;;5074241;28;20058;-67
2023/12/09 13:07:30;;;;;;;15.80;5.47;;;14.60;89.00;;;;;;5057117;28;20050;-67
2023/12/09 13:09:57;;;;;;;14.85;5.40;;;;;;;;;;5072023;28;20126;-67
2023/12/09 13:12:23;;;;;;;14.05;4.93;;;;;;;;;;5078442;28;20211;-69
2023/12/09 13:14:49;;;;;;;20.08;4.90;;;;;;;;;;5089225;28;20096;-68
2023/12/09 13:17:15;;;;;;;14.77;4.20;;;;;;;;;;5099215;28;20036;-67
2023/12/09 13:19:41;;;;;;;17.40;4.80;;;;;;;;;;5057014;28;20044;-66
2023/12/09 13:22:08;;;;;;;14.43;4.50;;;;;;;;;;5074414;28;20048;-68
2023/12/09 13:24:34;;;;;;;13.25;4.15;;;;;;;;;;5057542;28;20104;-67
2023/12/09 13:27:00;;;;;;;16.33;3.90;;;;;;;;;;5057675;28;20048;-68
2023/12/09 13:29:26;;;;;;;11.20;3.70;;;;;;;;;;5071459;28;20096;-68
2023/12/09 13:31:53;;;;;;;14.57;3.78;;;;;;;;;;5075364;28;20040;-68
2023/12/09 13:34:19;;;;;;;12.70;4.13;;;;;;;;;;5080911;28;20143;-67
2023/12/09 13:36:46;;;;;;;9.13;3.38;;;;;;;;;;5097806;28;20481;-68
2023/12/09 13:39:14;;;;;;;11.98;4.07;;;;;;;;;;5070842;28;20398;-67
2023/12/09 13:41:40;;;;;;;9.98;3.22;;;;;;;;;;5077832;28;20036;-68
2023/12/09 13:44:06;;;;;;;10.02;3.60;;;;;;;;;;5074290;28;20069;-67
2023/12/09 13:46:32;;;;;;;10.25;3.42;;;;;;;;;;5063828;28;20094;-68
2023/12/09 13:48:59;;;;;;;10.25;3.15;;;;;;;;;;5078150;28;20050;-67
2023/12/09 13:51:25;;;;;;;10.57;3.50;;;;;;;;;;5068869;28;20071;-67
2023/12/09 13:53:53;;;;;;;8.48;3.15;;;;;;;;;;5084992;28;20043;-67
2023/12/09 13:56:20;;;;;;;9.32;3.50;;;;;;;;;;5079956;28;20051;-67
2023/12/09 13:58:47;;;;;;;13.27;4.03;;;;;;;;;;5096093;28;20092;-67
2023/12/09 14:01:13;;;;;;;11.38;3.67;;;14.50;88.00;;;;;;5096428;28;20491;-65